Terminal Aerodrome Forecast
Issued by NWS Detroit/Pontiac, MI

Home | Current Version | Previous Version | Text Only | Print | Product List | Glossary On
Versions: 1 2 3 4 5 6 7 8 9 10 11 12 13 14 15 16 17 18 19 20 21 22 23 24 25 26 27 28 29 30 31 32 33
381
FTUS43 KDTX 012359
TAFDTW
TAF
KDTW 012359Z 0200/0306 01008KT P6SM OVC015
     FM020500 04006KT 2SM RA BR OVC006
     FM021000 03007KT 4SM -RA BR OVC004
     FM021200 03009KT 5SM BR OVC007
     FM021500 03009KT P6SM BKN015
     FM021800 02009KT P6SM BKN025
     FM022000 03010KT P6SM BKN040=

USA.gov is the U.S. government's official web portal to all federal, state and local government web resources and services.